sensor_id;sensor_type;location;lat;lon;timestamp;P1;durP1;ratioP1;P2;durP2;ratioP2
18334;SDS011;9293;49.524;10.964;2024-03-29T00:01:24;4.30;;;1.95;;
18334;SDS011;9293;49.524;10.964;2024-03-29T00:03:51;3.55;;;1.92;;
18334;SDS011;9293;49.524;10.964;2024-03-29T00:06:18;3.97;;;1.90;;
18334;SDS011;9293;49.524;10.964;2024-03-29T00:08:45;5.28;;;2.05;;
18334;SDS011;9293;49.524;10.964;2024-03-29T00:11:11;4.47;;;1.58;;
18334;SDS011;9293;49.524;10.964;2024-03-29T00:13:38;2.10;;;1.45;;
18334;SDS011;9293;49.524;10.964;2024-03-29T00:16:05;2.38;;;1.45;;
18334;SDS011;9293;49.524;10.964;2024-03-29T00:18:32;3.58;;;1.75;;
18334;SDS011;9293;49.524;10.964;2024-03-29T00:20:58;4.18;;;2.08;;
18334;SDS011;9293;49.524;10.964;2024-03-29T00:23:24;3.45;;;1.83;;
18334;SDS011;9293;49.524;10.964;2024-03-29T00:25:50;6.47;;;1.90;;
18334;SDS011;9293;49.524;10.964;2024-03-29T00:28:16;4.47;;;1.92;;
18334;SDS011;9293;49.524;10.964;2024-03-29T00:30:43;3.03;;;1.92;;
18334;SDS011;9293;49.524;10.964;2024-03-29T00:33:09;4.65;;;1.80;;
18334;SDS011;9293;49.524;10.964;2024-03-29T00:35:35;1.90;;;1.38;;
18334;SDS011;9293;49.524;10.964;2024-03-29T00:38:01;3.55;;;2.15;;
18334;SDS011;9293;49.524;10.964;2024-03-29T00:40:27;3.28;;;1.95;;
18334;SDS011;9293;49.524;10.964;2024-03-29T00:42:53;3.63;;;1.70;;
18334;SDS011;9293;49.524;10.964;2024-03-29T00:45:20;4.43;;;2.03;;
18334;SDS011;9293;49.524;10.964;2024-03-29T00:47:46;3.42;;;1.85;;
18334;SDS011;9293;49.524;10.964;2024-03-29T00:50:12;3.15;;;2.22;;
18334;SDS011;9293;49.524;10.964;2024-03-29T00:52:38;5.78;;;3.00;;
18334;SDS011;9293;49.524;10.964;2024-03-29T00:55:04;6.07;;;2.72;;
18334;SDS011;9293;49.524;10.964;2024-03-29T00:57:31;5.72;;;3.10;;
18334;SDS011;9293;49.524;10.964;2024-03-29T00:59:57;6.30;;;3.17;;
18334;SDS011;9293;49.524;10.964;2024-03-29T01:02:23;8.95;;;5.63;;
18334;SDS011;9293;49.524;10.964;2024-03-29T01:04:50;7.10;;;4.50;;
18334;SDS011;9293;49.524;10.964;2024-03-29T01:07:16;8.40;;;3.92;;
18334;SDS011;9293;49.524;10.964;2024-03-29T01:09:43;6.90;;;4.13;;
18334;SDS011;9293;49.524;10.964;2024-03-29T01:12:09;3.78;;;1.90;;
18334;SDS011;9293;49.524;10.964;2024-03-29T01:14:36;3.88;;;2.00;;
18334;SDS011;9293;49.524;10.964;2024-03-29T01:17:02;4.72;;;1.77;;
18334;SDS011;9293;49.524;10.964;2024-03-29T01:19:29;2.20;;;1.38;;
18334;SDS011;9293;49.524;10.964;2024-03-29T01:21:55;2.13;;;1.60;;
18334;SDS011;9293;49.524;10.964;2024-03-29T01:24:21;3.65;;;2.10;;
18334;SDS011;9293;49.524;10.964;2024-03-29T01:26:47;2.50;;;1.38;;
18334;SDS011;9293;49.524;10.964;2024-03-29T01:29:13;3.42;;;1.48;;
18334;SDS011;9293;49.524;10.964;2024-03-29T01:31:39;3.50;;;1.70;;
18334;SDS011;9293;49.524;10.964;2024-03-29T01:34:05;5.15;;;1.50;;
18334;SDS011;9293;49.524;10.964;2024-03-29T01:36:31;2.78;;;1.50;;
18334;SDS011;9293;49.524;10.964;2024-03-29T01:38:57;2.47;;;1.60;;
18334;SDS011;9293;49.524;10.964;2024-03-29T01:41:24;2.15;;;1.23;;
18334;SDS011;9293;49.524;10.964;2024-03-29T01:43:53;3.40;;;1.13;;
18334;SDS011;9293;49.524;10.964;2024-03-29T01:46:21;1.55;;;1.17;;
18334;SDS011;9293;49.524;10.964;2024-03-29T01:48:52;2.58;;;1.00;;
18334;SDS011;9293;49.524;10.964;2024-03-29T01:51:22;2.50;;;1.13;;
18334;SDS011;9293;49.524;10.964;2024-03-29T01:53:50;2.63;;;1.10;;
18334;SDS011;9293;49.524;10.964;2024-03-29T01:56:18;2.47;;;1.45;;
18334;SDS011;9293;49.524;10.964;2024-03-29T01:58:48;2.72;;;1.40;;
18334;SDS011;9293;49.524;10.964;2024-03-29T02:01:16;2.55;;;1.20;;
18334;SDS011;9293;49.524;10.964;2024-03-29T02:03:43;1.98;;;1.30;;
18334;SDS011;9293;49.524;10.964;2024-03-29T02:06:10;4.10;;;1.55;;
18334;SDS011;9293;49.524;10.964;2024-03-29T02:08:38;2.63;;;1.27;;
18334;SDS011;9293;49.524;10.964;2024-03-29T02:11:04;2.33;;;1.15;;
18334;SDS011;9293;49.524;10.964;2024-03-29T02:13:31;2.05;;;1.15;;
18334;SDS011;9293;49.524;10.964;2024-03-29T02:15:57;2.40;;;1.40;;
18334;SDS011;9293;49.524;10.964;2024-03-29T02:18:24;2.88;;;1.20;;
18334;SDS011;9293;49.524;10.964;2024-03-29T02:20:50;2.28;;;1.15;;
18334;SDS011;9293;49.524;10.964;2024-03-29T02:23:18;2.35;;;0.98;;
18334;SDS011;9293;49.524;10.964;2024-03-29T02:28:13;1.58;;;0.88;;
18334;SDS011;9293;49.524;10.964;2024-03-29T02:30:39;4.10;;;1.15;;
18334;SDS011;9293;49.524;10.964;2024-03-29T02:33:06;2.63;;;1.00;;
18334;SDS011;9293;49.524;10.964;2024-03-29T02:35:32;3.60;;;1.05;;
18334;SDS011;9293;49.524;10.964;2024-03-29T02:37:58;3.22;;;1.08;;
18334;SDS011;9293;49.524;10.964;2024-03-29T02:40:24;2.95;;;0.90;;
18334;SDS011;9293;49.524;10.964;2024-03-29T02:42:50;1.48;;;0.88;;
18334;SDS011;9293;49.524;10.964;2024-03-29T02:45:16;1.13;;;0.85;;
18334;SDS011;9293;49.524;10.964;2024-03-29T02:47:43;1.27;;;0.73;;
18334;SDS011;9293;49.524;10.964;2024-03-29T02:50:09;2.30;;;0.77;;
18334;SDS011;9293;49.524;10.964;2024-03-29T02:52:36;1.77;;;0.70;;
18334;SDS011;9293;49.524;10.964;2024-03-29T02:55:03;2.97;;;1.17;;
18334;SDS011;9293;49.524;10.964;2024-03-29T02:57:29;2.25;;;0.70;;
18334;SDS011;9293;49.524;10.964;2024-03-29T02:59:55;2.15;;;0.80;;
18334;SDS011;9293;49.524;10.964;2024-03-29T03:02:21;1.00;;;0.70;;
18334;SDS011;9293;49.524;10.964;2024-03-29T03:04:47;1.63;;;0.90;;
18334;SDS011;9293;49.524;10.964;2024-03-29T03:07:14;1.95;;;0.50;;
18334;SDS011;9293;49.524;10.964;2024-03-29T03:09:59;2.30;;;0.80;;
18334;SDS011;9293;49.524;10.964;2024-03-29T03:12:43;1.88;;;0.80;;
18334;SDS011;9293;49.524;10.964;2024-03-29T03:15:09;1.35;;;0.70;;
18334;SDS011;9293;49.524;10.964;2024-03-29T03:17:35;1.20;;;0.60;;
18334;SDS011;9293;49.524;10.964;2024-03-29T03:20:01;2.22;;;0.60;;
18334;SDS011;9293;49.524;10.964;2024-03-29T03:22:30;1.35;;;0.60;;
18334;SDS011;9293;49.524;10.964;2024-03-29T03:24:56;3.63;;;0.80;;
18334;SDS011;9293;49.524;10.964;2024-03-29T03:27:22;2.38;;;0.73;;
18334;SDS011;9293;49.524;10.964;2024-03-29T03:29:49;1.08;;;0.73;;
18334;SDS011;9293;49.524;10.964;2024-03-29T03:32:15;1.17;;;0.40;;
18334;SDS011;9293;49.524;10.964;2024-03-29T03:34:41;2.08;;;0.70;;
18334;SDS011;9293;49.524;10.964;2024-03-29T03:37:07;1.35;;;0.95;;
18334;SDS011;9293;49.524;10.964;2024-03-29T03:39:33;1.42;;;0.50;;
18334;SDS011;9293;49.524;10.964;2024-03-29T03:41:59;2.55;;;0.60;;
18334;SDS011;9293;49.524;10.964;2024-03-29T03:44:25;1.58;;;0.90;;
18334;SDS011;9293;49.524;10.964;2024-03-29T03:46:54;1.60;;;0.65;;
18334;SDS011;9293;49.524;10.964;2024-03-29T03:49:20;1.63;;;0.65;;
18334;SDS011;9293;49.524;10.964;2024-03-29T03:51:47;2.35;;;0.70;;
18334;SDS011;9293;49.524;10.964;2024-03-29T03:54:13;3.05;;;0.70;;
18334;SDS011;9293;49.524;10.964;2024-03-29T03:56:39;1.33;;;0.60;;
18334;SDS011;9293;49.524;10.964;2024-03-29T03:59:05;0.85;;;0.52;;
18334;SDS011;9293;49.524;10.964;2024-03-29T04:01:32;1.33;;;0.60;;
18334;SDS011;9293;49.524;10.964;2024-03-29T04:03:59;2.40;;;0.55;;
18334;SDS011;9293;49.524;10.964;2024-03-29T04:06:25;3.45;;;0.60;;
18334;SDS011;9293;49.524;10.964;2024-03-29T04:08:51;2.63;;;0.60;;
18334;SDS011;9293;49.524;10.964;2024-03-29T04:11:17;1.85;;;0.60;;
18334;SDS011;9293;49.524;10.964;2024-03-29T04:13:44;0.93;;;0.50;;
18334;SDS011;9293;49.524;10.964;2024-03-29T04:16:11;1.70;;;0.60;;
18334;SDS011;9293;49.524;10.964;2024-03-29T04:18:37;1.38;;;0.60;;
18334;SDS011;9293;49.524;10.964;2024-03-29T04:21:03;2.45;;;0.60;;
18334;SDS011;9293;49.524;10.964;2024-03-29T04:23:30;2.15;;;0.50;;
18334;SDS011;9293;49.524;10.964;2024-03-29T04:25:57;1.42;;;0.70;;
18334;SDS011;9293;49.524;10.964;2024-03-29T04:28:24;0.95;;;0.60;;
18334;SDS011;9293;49.524;10.964;2024-03-29T04:30:55;0.80;;;0.45;;
18334;SDS011;9293;49.524;10.964;2024-03-29T04:33:22;1.88;;;0.52;;
18334;SDS011;9293;49.524;10.964;2024-03-29T04:38:30;2.22;;;0.52;;
18334;SDS011;9293;49.524;10.964;2024-03-29T04:40:58;1.27;;;0.50;;
18334;SDS011;9293;49.524;10.964;2024-03-29T04:43:25;2.38;;;0.70;;
18334;SDS011;9293;49.524;10.964;2024-03-29T04:46:03;1.52;;;0.52;;
18334;SDS011;9293;49.524;10.964;2024-03-29T04:48:34;1.08;;;0.70;;
18334;SDS011;9293;49.524;10.964;2024-03-29T04:51:00;1.73;;;0.73;;
18334;SDS011;9293;49.524;10.964;2024-03-29T04:53:26;1.00;;;0.60;;
18334;SDS011;9293;49.524;10.964;2024-03-29T04:55:56;3.08;;;0.63;;
18334;SDS011;9293;49.524;10.964;2024-03-29T04:58:23;2.05;;;0.68;;
18334;SDS011;9293;49.524;10.964;2024-03-29T05:00:51;0.98;;;0.38;;
18334;SDS011;9293;49.524;10.964;2024-03-29T05:03:18;1.77;;;0.60;;
18334;SDS011;9293;49.524;10.964;2024-03-29T05:05:45;1.13;;;0.52;;
18334;SDS011;9293;49.524;10.964;2024-03-29T05:08:11;0.95;;;0.50;;
18334;SDS011;9293;49.524;10.964;2024-03-29T05:10:41;0.80;;;0.40;;
18334;SDS011;9293;49.524;10.964;2024-03-29T05:13:07;1.70;;;0.60;;
18334;SDS011;9293;49.524;10.964;2024-03-29T05:15:34;0.57;;;0.40;;
18334;SDS011;9293;49.524;10.964;2024-03-29T05:18:00;1.00;;;0.60;;
18334;SDS011;9293;49.524;10.964;2024-03-29T05:20:29;1.08;;;0.63;;
18334;SDS011;9293;49.524;10.964;2024-03-29T05:22:57;0.30;;;0.30;;
18334;SDS011;9293;49.524;10.964;2024-03-29T05:25:26;1.88;;;0.60;;
18334;SDS011;9293;49.524;10.964;2024-03-29T05:27:52;1.15;;;0.52;;
18334;SDS011;9293;49.524;10.964;2024-03-29T05:30:19;0.77;;;0.50;;
18334;SDS011;9293;49.524;10.964;2024-03-29T05:32:45;0.80;;;0.43;;
18334;SDS011;9293;49.524;10.964;2024-03-29T05:35:11;2.10;;;0.50;;
18334;SDS011;9293;49.524;10.964;2024-03-29T05:37:39;1.65;;;0.63;;
18334;SDS011;9293;49.524;10.964;2024-03-29T05:40:07;1.15;;;0.50;;
18334;SDS011;9293;49.524;10.964;2024-03-29T05:42:34;0.70;;;0.50;;
18334;SDS011;9293;49.524;10.964;2024-03-29T05:45:03;1.70;;;0.60;;
18334;SDS011;9293;49.524;10.964;2024-03-29T05:47:32;0.70;;;0.40;;
18334;SDS011;9293;49.524;10.964;2024-03-29T05:49:58;1.02;;;0.40;;
18334;SDS011;9293;49.524;10.964;2024-03-29T05:52:24;2.15;;;0.50;;
18334;SDS011;9293;49.524;10.964;2024-03-29T05:54:50;1.35;;;0.30;;
18334;SDS011;9293;49.524;10.964;2024-03-29T05:57:16;0.90;;;0.40;;
18334;SDS011;9293;49.524;10.964;2024-03-29T05:59:42;0.63;;;0.47;;
18334;SDS011;9293;49.524;10.964;2024-03-29T06:02:08;0.40;;;0.30;;
18334;SDS011;9293;49.524;10.964;2024-03-29T06:04:35;1.17;;;0.45;;
18334;SDS011;9293;49.524;10.964;2024-03-29T06:07:03;0.70;;;0.40;;
18334;SDS011;9293;49.524;10.964;2024-03-29T06:09:30;0.85;;;0.40;;
18334;SDS011;9293;49.524;10.964;2024-03-29T06:11:59;0.68;;;0.35;;
18334;SDS011;9293;49.524;10.964;2024-03-29T06:14:26;0.60;;;0.40;;
18334;SDS011;9293;49.524;10.964;2024-03-29T06:17:11;0.80;;;0.35;;
18334;SDS011;9293;49.524;10.964;2024-03-29T06:19:52;0.40;;;0.30;;
18334;SDS011;9293;49.524;10.964;2024-03-29T06:22:25;1.38;;;0.40;;
18334;SDS011;9293;49.524;10.964;2024-03-29T06:24:56;0.75;;;0.50;;
18334;SDS011;9293;49.524;10.964;2024-03-29T06:27:31;0.45;;;0.40;;
18334;SDS011;9293;49.524;10.964;2024-03-29T06:30:01;0.95;;;0.60;;
18334;SDS011;9293;49.524;10.964;2024-03-29T06:32:29;1.40;;;0.60;;
18334;SDS011;9293;49.524;10.964;2024-03-29T06:34:59;0.60;;;0.45;;
18334;SDS011;9293;49.524;10.964;2024-03-29T06:37:26;0.95;;;0.50;;
18334;SDS011;9293;49.524;10.964;2024-03-29T06:39:55;1.42;;;0.45;;
18334;SDS011;9293;49.524;10.964;2024-03-29T06:42:24;0.88;;;0.50;;
18334;SDS011;9293;49.524;10.964;2024-03-29T06:44:50;0.80;;;0.50;;
18334;SDS011;9293;49.524;10.964;2024-03-29T06:47:18;1.23;;;0.50;;
18334;SDS011;9293;49.524;10.964;2024-03-29T06:49:44;2.60;;;0.40;;
18334;SDS011;9293;49.524;10.964;2024-03-29T06:52:14;0.70;;;0.45;;
18334;SDS011;9293;49.524;10.964;2024-03-29T06:54:40;0.60;;;0.35;;
18334;SDS011;9293;49.524;10.964;2024-03-29T06:57:07;0.73;;;0.40;;
18334;SDS011;9293;49.524;10.964;2024-03-29T06:59:35;2.13;;;0.47;;
18334;SDS011;9293;49.524;10.964;2024-03-29T07:02:02;0.90;;;0.50;;
18334;SDS011;9293;49.524;10.964;2024-03-29T07:04:29;1.65;;;0.50;;
18334;SDS011;9293;49.524;10.964;2024-03-29T07:06:58;0.73;;;0.50;;
18334;SDS011;9293;49.524;10.964;2024-03-29T07:09:24;1.40;;;0.77;;
18334;SDS011;9293;49.524;10.964;2024-03-29T07:11:51;0.93;;;0.43;;
18334;SDS011;9293;49.524;10.964;2024-03-29T07:14:18;2.05;;;0.60;;
18334;SDS011;9293;49.524;10.964;2024-03-29T07:16:45;1.27;;;0.90;;
18334;SDS011;9293;49.524;10.964;2024-03-29T07:19:11;0.95;;;0.40;;
18334;SDS011;9293;49.524;10.964;2024-03-29T07:21:39;3.17;;;0.68;;
18334;SDS011;9293;49.524;10.964;2024-03-29T07:24:06;0.50;;;0.40;;
18334;SDS011;9293;49.524;10.964;2024-03-29T07:26:32;0.77;;;0.47;;
18334;SDS011;9293;49.524;10.964;2024-03-29T07:28:58;1.17;;;0.65;;
18334;SDS011;9293;49.524;10.964;2024-03-29T07:31:24;1.50;;;0.68;;
18334;SDS011;9293;49.524;10.964;2024-03-29T07:33:54;1.20;;;0.60;;
18334;SDS011;9293;49.524;10.964;2024-03-29T07:36:20;0.98;;;0.40;;
18334;SDS011;9293;49.524;10.964;2024-03-29T07:38:48;1.05;;;0.40;;
18334;SDS011;9293;49.524;10.964;2024-03-29T07:41:14;0.93;;;0.50;;
18334;SDS011;9293;49.524;10.964;2024-03-29T07:43:55;1.98;;;1.17;;
18334;SDS011;9293;49.524;10.964;2024-03-29T07:46:27;0.85;;;0.52;;
18334;SDS011;9293;49.524;10.964;2024-03-29T07:48:56;1.73;;;0.50;;
18334;SDS011;9293;49.524;10.964;2024-03-29T07:51:22;1.30;;;0.65;;
18334;SDS011;9293;49.524;10.964;2024-03-29T07:53:48;1.30;;;0.90;;
18334;SDS011;9293;49.524;10.964;2024-03-29T07:56:14;0.60;;;0.45;;
18334;SDS011;9293;49.524;10.964;2024-03-29T07:58:41;2.30;;;0.50;;
18334;SDS011;9293;49.524;10.964;2024-03-29T08:01:07;1.45;;;0.60;;
18334;SDS011;9293;49.524;10.964;2024-03-29T08:03:33;1.10;;;0.47;;
18334;SDS011;9293;49.524;10.964;2024-03-29T08:06:00;3.92;;;0.90;;
18334;SDS011;9293;49.524;10.964;2024-03-29T08:08:30;2.40;;;0.50;;
18334;SDS011;9293;49.524;10.964;2024-03-29T08:10:57;0.85;;;0.38;;
18334;SDS011;9293;49.524;10.964;2024-03-29T08:13:23;0.68;;;0.50;;
18334;SDS011;9293;49.524;10.964;2024-03-29T08:15:55;1.17;;;0.40;;
18334;SDS011;9293;49.524;10.964;2024-03-29T08:18:26;0.65;;;0.45;;
18334;SDS011;9293;49.524;10.964;2024-03-29T08:20:53;0.52;;;0.38;;
18334;SDS011;9293;49.524;10.964;2024-03-29T08:23:21;2.40;;;0.47;;
18334;SDS011;9293;49.524;10.964;2024-03-29T08:25:47;0.50;;;0.38;;
18334;SDS011;9293;49.524;10.964;2024-03-29T08:28:14;0.50;;;0.32;;
18334;SDS011;9293;49.524;10.964;2024-03-29T08:30:41;2.53;;;0.40;;
18334;SDS011;9293;49.524;10.964;2024-03-29T08:33:07;0.90;;;0.30;;
18334;SDS011;9293;49.524;10.964;2024-03-29T08:35:33;1.27;;;0.43;;
18334;SDS011;9293;49.524;10.964;2024-03-29T08:38:00;0.65;;;0.40;;
18334;SDS011;9293;49.524;10.964;2024-03-29T08:40:27;0.98;;;0.40;;
18334;SDS011;9293;49.524;10.964;2024-03-29T08:42:55;0.70;;;0.40;;
18334;SDS011;9293;49.524;10.964;2024-03-29T08:45:21;0.57;;;0.40;;
18334;SDS011;9293;49.524;10.964;2024-03-29T08:47:47;0.63;;;0.32;;
18334;SDS011;9293;49.524;10.964;2024-03-29T08:50:14;1.55;;;0.52;;
18334;SDS011;9293;49.524;10.964;2024-03-29T08:52:40;1.10;;;0.38;;
18334;SDS011;9293;49.524;10.964;2024-03-29T08:55:07;1.48;;;0.30;;
18334;SDS011;9293;49.524;10.964;2024-03-29T08:57:34;0.55;;;0.40;;
18334;SDS011;9293;49.524;10.964;2024-03-29T09:00:00;0.65;;;0.30;;
18334;SDS011;9293;49.524;10.964;2024-03-29T09:02:26;5.25;;;0.65;;
18334;SDS011;9293;49.524;10.964;2024-03-29T09:04:52;2.65;;;0.80;;
18334;SDS011;9293;49.524;10.964;2024-03-29T09:07:19;3.33;;;0.60;;
18334;SDS011;9293;49.524;10.964;2024-03-29T09:09:50;1.90;;;0.90;;
18334;SDS011;9293;49.524;10.964;2024-03-29T09:12:17;16.13;;;8.07;;
18334;SDS011;9293;49.524;10.964;2024-03-29T09:14:44;5.22;;;1.33;;
18334;SDS011;9293;49.524;10.964;2024-03-29T09:17:11;2.58;;;0.80;;
18334;SDS011;9293;49.524;10.964;2024-03-29T09:19:37;3.90;;;1.10;;
18334;SDS011;9293;49.524;10.964;2024-03-29T09:22:03;3.40;;;1.38;;
18334;SDS011;9293;49.524;10.964;2024-03-29T09:24:31;4.60;;;2.15;;
18334;SDS011;9293;49.524;10.964;2024-03-29T09:27:00;4.80;;;2.30;;
18334;SDS011;9293;49.524;10.964;2024-03-29T09:29:26;1.55;;;0.70;;
18334;SDS011;9293;49.524;10.964;2024-03-29T09:31:52;1.10;;;0.68;;
18334;SDS011;9293;49.524;10.964;2024-03-29T09:34:19;1.15;;;0.80;;
18334;SDS011;9293;49.524;10.964;2024-03-29T09:36:45;1.23;;;0.55;;
18334;SDS011;9293;49.524;10.964;2024-03-29T09:39:12;1.48;;;0.60;;
18334;SDS011;9293;49.524;10.964;2024-03-29T09:41:38;1.08;;;0.80;;
18334;SDS011;9293;49.524;10.964;2024-03-29T09:44:10;1.77;;;1.00;;
18334;SDS011;9293;49.524;10.964;2024-03-29T09:46:36;2.33;;;0.60;;
18334;SDS011;9293;49.524;10.964;2024-03-29T09:49:05;1.05;;;0.70;;
18334;SDS011;9293;49.524;10.964;2024-03-29T09:51:32;1.02;;;0.90;;
18334;SDS011;9293;49.524;10.964;2024-03-29T09:53:59;1.95;;;1.60;;
18334;SDS011;9293;49.524;10.964;2024-03-29T09:56:26;1.60;;;0.80;;
18334;SDS011;9293;49.524;10.964;2024-03-29T09:58:53;1.40;;;0.80;;
18334;SDS011;9293;49.524;10.964;2024-03-29T10:01:19;1.38;;;0.90;;
18334;SDS011;9293;49.524;10.964;2024-03-29T10:03:48;1.48;;;0.80;;
18334;SDS011;9293;49.524;10.964;2024-03-29T10:06:18;1.55;;;0.77;;
18334;SDS011;9293;49.524;10.964;2024-03-29T10:08:47;1.60;;;0.73;;
18334;SDS011;9293;49.524;10.964;2024-03-29T10:11:14;1.45;;;0.60;;
18334;SDS011;9293;49.524;10.964;2024-03-29T10:13:45;1.50;;;0.80;;
18334;SDS011;9293;49.524;10.964;2024-03-29T10:16:11;1.92;;;0.90;;
18334;SDS011;9293;49.524;10.964;2024-03-29T10:18:40;2.65;;;1.00;;
18334;SDS011;9293;49.524;10.964;2024-03-29T10:21:07;1.60;;;1.00;;
18334;SDS011;9293;49.524;10.964;2024-03-29T10:23:34;1.45;;;0.82;;
18334;SDS011;9293;49.524;10.964;2024-03-29T10:26:01;1.95;;;1.05;;
18334;SDS011;9293;49.524;10.964;2024-03-29T10:28:31;2.55;;;1.00;;
18334;SDS011;9293;49.524;10.964;2024-03-29T10:31:00;1.60;;;1.23;;
18334;SDS011;9293;49.524;10.964;2024-03-29T10:33:30;2.10;;;1.48;;
18334;SDS011;9293;49.524;10.964;2024-03-29T10:35:58;2.22;;;0.80;;
18334;SDS011;9293;49.524;10.964;2024-03-29T10:38:26;1.85;;;0.75;;
18334;SDS011;9293;49.524;10.964;2024-03-29T10:40:53;1.92;;;0.90;;
18334;SDS011;9293;49.524;10.964;2024-03-29T10:43:20;1.50;;;0.65;;
18334;SDS011;9293;49.524;10.964;2024-03-29T10:45:47;2.25;;;0.90;;
18334;SDS011;9293;49.524;10.964;2024-03-29T10:48:15;2.03;;;0.80;;
18334;SDS011;9293;49.524;10.964;2024-03-29T10:50:46;2.38;;;1.00;;
18334;SDS011;9293;49.524;10.964;2024-03-29T10:53:13;3.08;;;1.20;;
18334;SDS011;9293;49.524;10.964;2024-03-29T10:55:43;1.25;;;0.68;;
18334;SDS011;9293;49.524;10.964;2024-03-29T10:58:10;1.08;;;0.70;;
18334;SDS011;9293;49.524;10.964;2024-03-29T11:00:47;1.70;;;1.00;;
18334;SDS011;9293;49.524;10.964;2024-03-29T11:05:43;3.22;;;1.13;;
18334;SDS011;9293;49.524;10.964;2024-03-29T11:08:13;2.67;;;1.25;;
18334;SDS011;9293;49.524;10.964;2024-03-29T11:10:45;2.88;;;1.40;;
18334;SDS011;9293;49.524;10.964;2024-03-29T11:13:20;5.33;;;1.40;;
18334;SDS011;9293;49.524;10.964;2024-03-29T11:15:48;2.67;;;1.15;;
18334;SDS011;9293;49.524;10.964;2024-03-29T11:18:17;2.20;;;1.20;;
18334;SDS011;9293;49.524;10.964;2024-03-29T11:20:45;1.85;;;1.10;;
18334;SDS011;9293;49.524;10.964;2024-03-29T11:23:18;2.05;;;1.23;;
18334;SDS011;9293;49.524;10.964;2024-03-29T11:25:48;2.75;;;1.08;;
18334;SDS011;9293;49.524;10.964;2024-03-29T11:28:34;2.08;;;1.15;;
18334;SDS011;9293;49.524;10.964;2024-03-29T11:31:05;2.80;;;1.30;;
18334;SDS011;9293;49.524;10.964;2024-03-29T11:38:37;3.40;;;1.27;;
18334;SDS011;9293;49.524;10.964;2024-03-29T11:41:15;1.98;;;1.30;;
18334;SDS011;9293;49.524;10.964;2024-03-29T11:43:42;1.80;;;1.08;;
18334;SDS011;9293;49.524;10.964;2024-03-29T11:46:13;2.22;;;1.10;;
18334;SDS011;9293;49.524;10.964;2024-03-29T11:48:41;2.13;;;1.08;;
18334;SDS011;9293;49.524;10.964;2024-03-29T11:51:11;1.73;;;0.88;;
18334;SDS011;9293;49.524;10.964;2024-03-29T11:53:40;1.73;;;0.80;;
18334;SDS011;9293;49.524;10.964;2024-03-29T11:56:08;1.52;;;0.80;;
18334;SDS011;9293;49.524;10.964;2024-03-29T11:58:34;2.55;;;0.80;;
18334;SDS011;9293;49.524;10.964;2024-03-29T12:01:01;2.53;;;0.98;;
18334;SDS011;9293;49.524;10.964;2024-03-29T12:03:28;1.98;;;1.13;;
18334;SDS011;9293;49.524;10.964;2024-03-29T12:05:57;2.08;;;0.98;;
18334;SDS011;9293;49.524;10.964;2024-03-29T12:08:37;1.88;;;0.95;;
18334;SDS011;9293;49.524;10.964;2024-03-29T12:11:05;2.13;;;0.80;;
18334;SDS011;9293;49.524;10.964;2024-03-29T12:13:31;1.60;;;1.13;;
18334;SDS011;9293;49.524;10.964;2024-03-29T12:15:58;2.55;;;1.30;;
18334;SDS011;9293;49.524;10.964;2024-03-29T12:18:25;2.67;;;1.48;;
18334;SDS011;9293;49.524;10.964;2024-03-29T12:20:53;2.63;;;1.00;;
18334;SDS011;9293;49.524;10.964;2024-03-29T12:23:21;1.67;;;1.17;;
18334;SDS011;9293;49.524;10.964;2024-03-29T12:25:48;1.30;;;0.90;;
18334;SDS011;9293;49.524;10.964;2024-03-29T12:28:16;2.90;;;1.70;;
18334;SDS011;9293;49.524;10.964;2024-03-29T12:30:43;1.63;;;0.82;;
18334;SDS011;9293;49.524;10.964;2024-03-29T12:33:17;1.50;;;0.73;;
18334;SDS011;9293;49.524;10.964;2024-03-29T12:35:48;3.05;;;1.00;;
18334;SDS011;9293;49.524;10.964;2024-03-29T12:38:17;2.95;;;1.08;;
18334;SDS011;9293;49.524;10.964;2024-03-29T12:40:45;2.08;;;1.17;;
18334;SDS011;9293;49.524;10.964;2024-03-29T12:43:13;3.60;;;1.20;;
18334;SDS011;9293;49.524;10.964;2024-03-29T12:45:48;1.90;;;1.20;;
18334;SDS011;9293;49.524;10.964;2024-03-29T12:48:16;1.10;;;1.00;;
18334;SDS011;9293;49.524;10.964;2024-03-29T12:50:45;3.10;;;1.10;;
18334;SDS011;9293;49.524;10.964;2024-03-29T12:53:12;4.30;;;1.23;;
18334;SDS011;9293;49.524;10.964;2024-03-29T12:55:40;1.95;;;1.20;;
18334;SDS011;9293;49.524;10.964;2024-03-29T12:58:12;3.47;;;1.50;;
18334;SDS011;9293;49.524;10.964;2024-03-29T13:00:39;3.03;;;1.80;;
18334;SDS011;9293;49.524;10.964;2024-03-29T13:03:06;3.88;;;1.58;;
18334;SDS011;9293;49.524;10.964;2024-03-29T13:05:34;3.55;;;1.67;;
18334;SDS011;9293;49.524;10.964;2024-03-29T13:08:05;3.10;;;1.83;;
18334;SDS011;9293;49.524;10.964;2024-03-29T13:10:39;2.78;;;2.03;;
18334;SDS011;9293;49.524;10.964;2024-03-29T13:13:08;3.65;;;2.00;;
18334;SDS011;9293;49.524;10.964;2024-03-29T13:15:35;2.72;;;2.03;;
18334;SDS011;9293;49.524;10.964;2024-03-29T13:18:07;4.65;;;1.88;;
18334;SDS011;9293;49.524;10.964;2024-03-29T13:20:35;3.38;;;1.95;;
18334;SDS011;9293;49.524;10.964;2024-03-29T13:23:06;3.70;;;1.98;;
18334;SDS011;9293;49.524;10.964;2024-03-29T13:25:32;2.88;;;1.60;;
18334;SDS011;9293;49.524;10.964;2024-03-29T13:27:59;4.35;;;1.80;;
18334;SDS011;9293;49.524;10.964;2024-03-29T13:30:25;3.58;;;1.70;;
18334;SDS011;9293;49.524;10.964;2024-03-29T13:32:52;2.22;;;1.70;;
18334;SDS011;9293;49.524;10.964;2024-03-29T13:35:19;4.53;;;2.38;;
18334;SDS011;9293;49.524;10.964;2024-03-29T13:37:47;4.25;;;3.35;;
18334;SDS011;9293;49.524;10.964;2024-03-29T13:40:15;3.22;;;1.85;;
18334;SDS011;9293;49.524;10.964;2024-03-29T13:42:43;3.35;;;1.73;;
18334;SDS011;9293;49.524;10.964;2024-03-29T13:45:09;3.40;;;2.30;;
18334;SDS011;9293;49.524;10.964;2024-03-29T13:47:36;3.25;;;1.73;;
18334;SDS011;9293;49.524;10.964;2024-03-29T13:50:04;3.95;;;2.13;;
18334;SDS011;9293;49.524;10.964;2024-03-29T13:52:30;3.15;;;1.95;;
18334;SDS011;9293;49.524;10.964;2024-03-29T13:54:57;6.63;;;3.95;;
18334;SDS011;9293;49.524;10.964;2024-03-29T13:57:24;2.95;;;1.73;;
18334;SDS011;9293;49.524;10.964;2024-03-29T13:59:50;2.67;;;1.50;;
18334;SDS011;9293;49.524;10.964;2024-03-29T14:02:17;2.28;;;1.58;;
18334;SDS011;9293;49.524;10.964;2024-03-29T14:04:44;4.95;;;1.80;;
18334;SDS011;9293;49.524;10.964;2024-03-29T14:07:11;1.95;;;1.65;;
18334;SDS011;9293;49.524;10.964;2024-03-29T14:09:42;3.38;;;1.65;;
18334;SDS011;9293;49.524;10.964;2024-03-29T14:12:09;1.70;;;1.05;;
18334;SDS011;9293;49.524;10.964;2024-03-29T14:14:36;1.08;;;0.65;;
18334;SDS011;9293;49.524;10.964;2024-03-29T14:17:02;1.52;;;1.00;;
18334;SDS011;9293;49.524;10.964;2024-03-29T14:19:50;2.92;;;0.95;;
18334;SDS011;9293;49.524;10.964;2024-03-29T14:22:16;1.73;;;1.08;;
18334;SDS011;9293;49.524;10.964;2024-03-29T14:24:45;2.85;;;0.95;;
18334;SDS011;9293;49.524;10.964;2024-03-29T14:27:12;2.03;;;1.13;;
18334;SDS011;9293;49.524;10.964;2024-03-29T14:29:38;2.05;;;1.13;;
18334;SDS011;9293;49.524;10.964;2024-03-29T14:32:04;2.35;;;1.30;;
18334;SDS011;9293;49.524;10.964;2024-03-29T14:34:31;1.95;;;1.20;;
18334;SDS011;9293;49.524;10.964;2024-03-29T14:36:58;1.58;;;1.27;;
18334;SDS011;9293;49.524;10.964;2024-03-29T14:39:33;5.20;;;1.92;;
18334;SDS011;9293;49.524;10.964;2024-03-29T14:42:00;4.00;;;1.73;;
18334;SDS011;9293;49.524;10.964;2024-03-29T14:44:30;2.60;;;1.85;;
18334;SDS011;9293;49.524;10.964;2024-03-29T14:46:56;3.15;;;1.80;;
18334;SDS011;9293;49.524;10.964;2024-03-29T14:49:22;2.97;;;2.05;;
18334;SDS011;9293;49.524;10.964;2024-03-29T14:51:48;2.95;;;1.92;;
18334;SDS011;9293;49.524;10.964;2024-03-29T14:54:14;3.10;;;2.00;;
18334;SDS011;9293;49.524;10.964;2024-03-29T14:56:41;5.75;;;2.28;;
18334;SDS011;9293;49.524;10.964;2024-03-29T14:59:08;2.25;;;1.52;;
18334;SDS011;9293;49.524;10.964;2024-03-29T15:01:35;2.08;;;1.50;;
18334;SDS011;9293;49.524;10.964;2024-03-29T15:04:02;3.15;;;1.88;;